createdAt,value
2017-01-27T00:10:29.459Z,1025.7
2017-01-27T00:11:32.404Z,1025.7
2017-01-27T00:12:35.357Z,1025.7
2017-01-27T00:13:38.311Z,1025.7
2017-01-27T00:14:41.772Z,1025.7
2017-01-27T00:15:44.723Z,1025.7
2017-01-27T00:16:47.680Z,1025.7
2017-01-27T00:17:50.967Z,1025.7
2017-01-27T00:18:53.919Z,1025.7
2017-01-27T00:19:56.899Z,1025.7
2017-01-27T00:21:00.355Z,1025.7
2017-01-27T00:22:03.312Z,1025.7
2017-01-27T00:23:06.262Z,1025.7
2017-01-27T00:24:09.728Z,1025.7
2017-01-27T00:26:15.584Z,1025.7
2017-01-27T00:27:19.042Z,1025.7
2017-01-27T00:28:21.988Z,1025.7
2017-01-27T00:29:25.110Z,1025.7
2017-01-27T00:30:28.057Z,1025.6
2017-01-27T00:31:31.009Z,1025.6
2017-01-27T00:32:34.296Z,1025.6
2017-01-27T00:33:37.268Z,1025.6
2017-01-27T00:34:40.727Z,1025.6
2017-01-27T00:35:43.685Z,1025.6
2017-01-27T00:36:46.632Z,1025.6
2017-01-27T00:37:49.589Z,1025.6
2017-01-27T00:38:53.044Z,1025.6
2017-01-27T00:39:55.999Z,1025.7
2017-01-27T00:40:58.948Z,1025.7
2017-01-27T00:43:05.149Z,1025.7
2017-01-27T00:44:08.448Z,1025.6
2017-01-27T00:45:11.234Z,1025.6
2017-01-27T00:46:14.525Z,1025.6
2017-01-27T00:49:23.799Z,1025.6
2017-01-27T00:50:26.749Z,1025.6
2017-01-27T00:51:30.202Z,1025.6
2017-01-27T00:52:33.156Z,1025.6
2017-01-27T00:54:39.521Z,1025.6
2017-01-27T01:11:28.603Z,1025.3
2017-01-27T01:12:32.060Z,1025.3
2017-01-27T01:13:34.851Z,1025.3
2017-01-27T01:14:38.308Z,1025.3
2017-01-27T01:15:41.256Z,1025.3
2017-01-27T02:00:54.408Z,1025
2017-01-27T02:04:03.682Z,1025
2017-01-27T02:06:09.569Z,1025
2017-01-27T02:08:15.939Z,1025
2017-01-27T02:45:04.323Z,1024.9
2017-01-27T02:56:37.858Z,1024.8
2017-01-27T02:58:44.216Z,1024.7
2017-01-27T02:59:47.186Z,1024.8
2017-01-27T03:01:53.547Z,1024.8
2017-01-27T03:02:56.374Z,1024.8
2017-01-27T03:09:15.367Z,1024.8
2017-01-27T03:11:21.222Z,1024.8
2017-01-27T03:12:24.158Z,1024.9
2017-01-27T03:13:27.460Z,1024.9
2017-01-27T03:14:30.401Z,1024.9
2017-01-27T03:15:33.846Z,1024.9
2017-01-27T03:21:52.175Z,1024.8
2017-01-27T03:22:55.115Z,1024.8
2017-01-27T04:13:23.273Z,1024.6
2017-01-27T04:14:26.206Z,1024.6
2017-01-27T04:18:38.959Z,1024.6
2017-01-27T05:01:45.081Z,1024.4
2017-01-27T05:02:48.359Z,1024.3
2017-01-27T05:28:02.211Z,1024.3
2017-01-27T05:29:05.157Z,1024.3
2017-01-27T05:30:08.595Z,1024.3
2017-01-27T05:31:11.562Z,1024.3
2017-01-27T05:32:14.509Z,1024.3
2017-01-27T05:33:17.448Z,1024.3
2017-01-27T05:34:20.891Z,1024.3
2017-01-27T05:35:23.829Z,1024.3
2017-01-27T05:36:26.774Z,1024.3
2017-01-27T05:37:30.059Z,1024.3
2017-01-27T05:38:32.999Z,1024.3
2017-01-27T05:39:35.944Z,1024.2
2017-01-27T05:40:39.390Z,1024.3
2017-01-27T05:41:42.329Z,1024.3
2017-01-27T05:42:45.278Z,1024.3
2017-01-27T05:43:48.721Z,1024.4
2017-01-27T05:44:51.660Z,1024.3
2017-01-27T05:45:54.608Z,1024.4
2017-01-27T05:46:57.552Z,1024.4
2017-01-27T05:48:00.996Z,1024.4
2017-01-27T05:49:03.977Z,1024.4
2017-01-27T05:50:06.762Z,1024.3
2017-01-27T05:51:10.210Z,1024.3
2017-01-27T05:52:13.159Z,1024.3
2017-01-27T05:53:16.110Z,1024.3
2017-01-27T05:54:19.387Z,1024.3
2017-01-27T05:55:22.161Z,1024.4
2017-01-27T05:56:25.607Z,1024.4
2017-01-27T05:57:28.380Z,1024.4
2017-01-27T05:58:31.325Z,1024.4
2017-01-27T05:59:34.770Z,1024.4
2017-01-27T06:00:37.713Z,1024.4
2017-01-27T06:01:40.653Z,1024.4
2017-01-27T06:02:44.094Z,1024.4
2017-01-27T06:03:47.030Z,1024.5
2017-01-27T06:04:49.971Z,1024.4
2017-01-27T06:05:52.912Z,1024.4
2017-01-27T06:06:56.185Z,1024.3
2017-01-27T06:07:59.125Z,1024.4
2017-01-27T06:09:02.569Z,1024.3
2017-01-27T06:10:05.538Z,1024.4
2017-01-27T06:11:08.307Z,1024.4
2017-01-27T06:12:11.751Z,1024.4
2017-01-27T06:13:14.688Z,1024.4
2017-01-27T06:14:17.629Z,1024.4
2017-01-27T06:15:20.569Z,1024.4
2017-01-27T06:16:24.017Z,1024.4
2017-01-27T06:17:26.959Z,1024.4
2017-01-27T06:18:30.235Z,1024.4
2017-01-27T06:19:33.182Z,1024.4
2017-01-27T06:20:36.149Z,1024.4
2017-01-27T06:21:39.098Z,1024.4
2017-01-27T06:22:42.541Z,1024.4
2017-01-27T06:23:45.486Z,1024.4
2017-01-27T06:24:48.429Z,1024.4
2017-01-27T06:25:51.369Z,1024.4
2017-01-27T06:26:54.826Z,1024.4
2017-01-27T06:27:57.774Z,1024.4
2017-01-27T06:29:00.716Z,1024.5
2017-01-27T06:30:03.664Z,1024.4
2017-01-27T06:31:07.137Z,1024.5
2017-01-27T06:32:10.076Z,1024.5
2017-01-27T06:33:13.040Z,1024.5
2017-01-27T06:34:16.319Z,1024.5
2017-01-27T06:35:19.093Z,1024.5
2017-01-27T06:36:22.363Z,1024.6
2017-01-27T06:37:25.301Z,1024.7
2017-01-27T06:38:28.247Z,1024.6
2017-01-27T06:39:31.693Z,1024.6
2017-01-27T06:40:34.632Z,1024.6
2017-01-27T06:41:37.605Z,1024.7
2017-01-27T06:42:40.549Z,1024.6
2017-01-27T06:43:44.002Z,1024.7
2017-01-27T06:44:46.950Z,1024.7
2017-01-27T06:45:49.895Z,1024.7
2017-01-27T06:46:52.836Z,1024.7
2017-01-27T06:47:56.287Z,1024.7
2017-01-27T06:48:59.227Z,1024.8
2017-01-27T06:50:02.172Z,1024.8
2017-01-27T06:51:05.620Z,1024.8
2017-01-27T06:52:08.573Z,1024.8
2017-01-27T06:53:11.362Z,1024.8
2017-01-27T06:54:14.807Z,1024.7
2017-01-27T06:55:17.795Z,1024.7
2017-01-27T06:56:20.735Z,1024.7
2017-01-27T06:57:23.676Z,1024.7
2017-01-27T06:58:27.124Z,1024.7
2017-01-27T06:59:30.064Z,1024.7
2017-01-27T07:00:33.008Z,1024.6
2017-01-27T07:01:36.287Z,1024.6
2017-01-27T07:02:39.239Z,1024.6
2017-01-27T07:03:42.180Z,1024.6
2017-01-27T07:04:45.119Z,1024.6
2017-01-27T07:05:48.563Z,1024.5
2017-01-27T07:06:51.332Z,1024.6
2017-01-27T07:07:54.612Z,1024.6
2017-01-27T07:08:57.753Z,1024.5
2017-01-27T07:10:00.694Z,1024.5
2017-01-27T07:11:03.642Z,1024.6
2017-01-27T07:15:16.312Z,1024.5
2017-01-27T07:16:19.261Z,1024.5
2017-01-27T07:17:22.036Z,1024.4
2017-01-27T07:18:25.483Z,1024.5
2017-01-27T07:19:28.423Z,1024.5
2017-01-27T07:20:31.368Z,1024.5
2017-01-27T07:21:34.814Z,1024.5
2017-01-27T07:22:37.760Z,1024.6
2017-01-27T07:23:40.701Z,1024.6
2017-01-27T07:24:43.811Z,1024.5
2017-01-27T07:25:46.753Z,1024.6
2017-01-27T07:26:50.031Z,1024.6
2017-01-27T07:27:52.807Z,1024.7
2017-01-27T07:28:56.258Z,1024.6
2017-01-27T07:29:59.209Z,1024.6
2017-01-27T07:31:02.486Z,1024.7
2017-01-27T07:32:05.467Z,1024.6
2017-01-27T07:33:08.241Z,1024.6
2017-01-27T07:34:11.686Z,1024.6
2017-01-27T07:35:14.457Z,1024.6
2017-01-27T07:36:17.399Z,1024.7
2017-01-27T07:37:20.841Z,1024.7
2017-01-27T07:38:23.615Z,1024.7
2017-01-27T07:39:27.053Z,1024.7
2017-01-27T07:40:30.165Z,1024.6
2017-01-27T07:41:33.105Z,1024.6
2017-01-27T07:42:35.879Z,1024.7
2017-01-27T07:43:39.332Z,1024.6
2017-01-27T07:44:42.280Z,1024.5
2017-01-27T07:45:45.223Z,1024.5
2017-01-27T07:46:48.167Z,1024.5
2017-01-27T07:47:51.609Z,1024.5
2017-01-27T07:48:54.386Z,1024.6
2017-01-27T07:49:57.667Z,1024.6
2017-01-27T07:51:00.608Z,1024.5
2017-01-27T07:52:04.058Z,1024.5
2017-01-27T07:53:06.997Z,1024.6
2017-01-27T07:54:09.939Z,1024.6
2017-01-27T07:55:12.880Z,1024.6
2017-01-27T07:56:16.156Z,1024.6
2017-01-27T07:57:19.103Z,1024.5
2017-01-27T07:58:22.213Z,1024.6
2017-01-27T07:59:25.161Z,1024.6
2017-01-27T08:00:28.604Z,1024.6
2017-01-27T08:01:31.550Z,1024.6
2017-01-27T08:02:34.501Z,1024.6
2017-01-27T08:03:37.947Z,1024.5
2017-01-27T08:04:40.887Z,1024.6
2017-01-27T08:05:43.829Z,1024.6
2017-01-27T08:06:46.771Z,1024.6
2017-01-27T08:07:50.226Z,1024.6
2017-01-27T08:08:53.167Z,1024.6
2017-01-27T08:09:56.111Z,1024.6
2017-01-27T08:10:59.059Z,1024.6
2017-01-27T08:12:02.167Z,1024.6
2017-01-27T08:13:05.611Z,1024.6
2017-01-27T08:14:08.414Z,1024.6
2017-01-27T08:15:11.864Z,1024.6
2017-01-27T08:16:14.805Z,1024.5
2017-01-27T08:17:17.750Z,1024.5
2017-01-27T08:18:20.689Z,1024.5
2017-01-27T08:19:24.136Z,1024.6
2017-01-27T08:20:27.107Z,1024.5
2017-01-27T08:21:30.051Z,1024.5
2017-01-27T08:22:33.498Z,1024.5
2017-01-27T08:23:36.308Z,1024.5
2017-01-27T08:24:39.251Z,1024.5
2017-01-27T08:25:42.694Z,1024.4
2017-01-27T08:26:45.630Z,1024.4
2017-01-27T08:27:48.568Z,1024.4
2017-01-27T08:28:51.843Z,1024.5
2017-01-27T08:29:54.783Z,1024.5
2017-01-27T08:30:58.065Z,1024.5
2017-01-27T08:32:01.009Z,1024.5
2017-01-27T08:33:03.948Z,1024.4
2017-01-27T08:34:07.223Z,1024.5
2017-01-27T08:35:10.187Z,1024.5
2017-01-27T08:36:13.463Z,1024.4
2017-01-27T08:37:16.406Z,1024.4
2017-01-27T08:38:19.685Z,1024.4
2017-01-27T08:39:22.624Z,1024.3
2017-01-27T08:40:26.065Z,1024.4
2017-01-27T08:41:29.004Z,1024.4
2017-01-27T08:42:31.945Z,1024.4
2017-01-27T08:43:35.392Z,1024.3
2017-01-27T08:44:38.174Z,1024.3
2017-01-27T08:45:41.127Z,1024.4
2017-01-27T08:46:44.572Z,1024.3
2017-01-27T08:47:47.386Z,1024.4
2017-01-27T08:48:50.834Z,1024.3
2017-01-27T08:49:53.778Z,1024.4
2017-01-27T08:50:56.719Z,1024.4
2017-01-27T08:52:00.165Z,1024.4
2017-01-27T08:53:02.969Z,1024.4
2017-01-27T08:54:05.920Z,1024.4
2017-01-27T08:55:09.368Z,1024.4
2017-01-27T08:56:12.307Z,1024.4
2017-01-27T08:57:15.425Z,1024.4
2017-01-27T08:58:18.368Z,1024.4
2017-01-27T08:59:21.839Z,1024.4
2017-01-27T09:00:24.785Z,1024.4
2017-01-27T09:01:27.728Z,1024.5
2017-01-27T09:02:31.002Z,1024.5
2017-01-27T09:03:33.942Z,1024.5
2017-01-27T09:04:36.885Z,1024.4
2017-01-27T09:05:40.331Z,1024.4
2017-01-27T09:06:43.272Z,1024.4
2017-01-27T09:07:46.211Z,1024.4
2017-01-27T09:08:49.657Z,1024.4
2017-01-27T09:09:52.628Z,1024.3
2017-01-27T09:10:55.572Z,1024.5
2017-01-27T09:11:58.849Z,1024.5
2017-01-27T09:13:01.795Z,1024.4
2017-01-27T09:14:05.246Z,1024.4
2017-01-27T09:15:08.022Z,1024.4
2017-01-27T09:16:11.467Z,1024.4
2017-01-27T09:17:14.246Z,1024.5
2017-01-27T09:18:17.692Z,1024.5
2017-01-27T09:19:20.464Z,1024.5
2017-01-27T09:20:23.424Z,1024.5
2017-01-27T09:21:26.868Z,1024.5
2017-01-27T09:22:29.811Z,1024.5
2017-01-27T09:23:32.751Z,1024.4
2017-01-27T09:24:36.190Z,1024.4
2017-01-27T09:25:39.161Z,1024.5
2017-01-27T09:26:42.128Z,1024.5
2017-01-27T09:27:45.596Z,1024.6
2017-01-27T09:28:48.539Z,1024.6
2017-01-27T09:29:51.479Z,1024.5
2017-01-27T09:30:54.452Z,1024.5
2017-01-27T09:31:57.894Z,1024.5
2017-01-27T09:33:00.835Z,1024.6
2017-01-27T09:34:03.779Z,1024.5
2017-01-27T09:35:06.888Z,1024.6
2017-01-27T09:36:10.167Z,1024.5
2017-01-27T09:37:13.443Z,1024.6
2017-01-27T09:38:16.242Z,1024.6
2017-01-27T09:39:19.524Z,1024.6
2017-01-27T09:40:22.801Z,1024.6
2017-01-27T09:41:25.747Z,1024.6
2017-01-27T09:42:28.691Z,1024.6
2017-01-27T09:43:32.141Z,1024.6
2017-01-27T09:44:35.079Z,1024.6
2017-01-27T09:45:38.045Z,1024.5
2017-01-27T09:46:40.985Z,1024.5
2017-01-27T09:47:44.433Z,1024.6
2017-01-27T09:48:47.209Z,1024.5
2017-01-27T09:49:50.654Z,1024.6
2017-01-27T09:50:53.596Z,1024.6
2017-01-27T09:51:56.549Z,1024.6
2017-01-27T09:52:59.994Z,1024.6
2017-01-27T09:54:02.937Z,1024.6
2017-01-27T09:55:05.880Z,1024.5
2017-01-27T09:56:08.997Z,1024.5
2017-01-27T09:58:15.357Z,1024.5
2017-01-27T09:59:18.296Z,1024.5
2017-01-27T10:00:21.740Z,1024.5
2017-01-27T10:01:24.679Z,1024.4
2017-01-27T10:02:27.620Z,1024.4
2017-01-27T10:03:30.896Z,1024.4
2017-01-27T10:04:33.836Z,1024.5
2017-01-27T10:05:37.110Z,1024.5
2017-01-27T10:06:40.051Z,1024.4
2017-01-27T10:07:43.493Z,1024.4
2017-01-27T10:08:46.437Z,1024.4
2017-01-27T10:09:49.385Z,1024.4
2017-01-27T10:10:52.828Z,1024.4
2017-01-27T10:11:55.776Z,1024.4
2017-01-27T10:12:58.547Z,1024.4
2017-01-27T10:14:01.659Z,1024.5
2017-01-27T10:15:05.102Z,1024.5
2017-01-27T10:16:08.044Z,1024.5
2017-01-27T10:17:10.988Z,1024.5
2017-01-27T10:18:14.262Z,1024.4
2017-01-27T10:19:17.210Z,1024.5
2017-01-27T10:20:20.488Z,1024.4
2017-01-27T10:21:23.428Z,1024.4
2017-01-27T10:22:26.922Z,1024.4
2017-01-27T10:23:29.691Z,1024.3
2017-01-27T10:24:32.972Z,1024.3
2017-01-27T10:25:35.912Z,1024.3
2017-01-27T10:26:39.359Z,1024.2
2017-01-27T10:27:42.297Z,1024.3
2017-01-27T10:28:45.238Z,1024.3
2017-01-27T10:29:48.684Z,1024.3
2017-01-27T10:30:51.625Z,1024.3
2017-01-27T10:31:54.571Z,1024.3
2017-01-27T10:32:58.038Z,1024.3
2017-01-27T10:34:00.982Z,1024.4
2017-01-27T10:35:04.260Z,1024.3
2017-01-27T10:36:07.199Z,1024.3
2017-01-27T10:37:10.167Z,1024.2
2017-01-27T10:38:13.109Z,1024.2
2017-01-27T10:39:16.219Z,1024.3
2017-01-27T10:40:19.671Z,1024.3
2017-01-27T10:41:22.619Z,1024.2
2017-01-27T10:42:25.562Z,1024.3
2017-01-27T10:43:29.009Z,1024.3
2017-01-27T10:44:31.959Z,1024.3
2017-01-27T10:45:34.909Z,1024.3
2017-01-27T10:46:38.355Z,1024.3
2017-01-27T10:47:41.300Z,1024.2
2017-01-27T10:48:44.241Z,1024.3
2017-01-27T10:49:47.686Z,1024.3
2017-01-27T10:50:50.636Z,1024.3
2017-01-27T10:51:53.580Z,1024.3
2017-01-27T10:52:56.858Z,1024.3
2017-01-27T10:53:59.966Z,1024.3
2017-01-27T10:55:02.908Z,1024.2
2017-01-27T10:57:09.293Z,1024.2
2017-01-27T10:58:12.413Z,1024.2
2017-01-27T10:59:15.350Z,1024.2
2017-01-27T11:00:18.798Z,1024.2
2017-01-27T11:01:21.592Z,1024.2
2017-01-27T11:02:24.869Z,1024.2
2017-01-27T11:03:27.814Z,1024.2
2017-01-27T11:04:31.261Z,1024.2
2017-01-27T11:05:34.234Z,1024.2
2017-01-27T11:06:37.176Z,1024.1
2017-01-27T11:07:40.624Z,1024.1
2017-01-27T11:08:43.562Z,1024.1
2017-01-27T11:09:46.506Z,1024.1
2017-01-27T11:10:49.956Z,1024.1
2017-01-27T11:11:52.897Z,1024.1
2017-01-27T11:12:56.176Z,1024.1
2017-01-27T11:13:59.122Z,1024.1
2017-01-27T11:15:02.067Z,1024.1
2017-01-27T11:16:05.348Z,1024.1
2017-01-27T11:17:08.633Z,1024.1
2017-01-27T11:18:11.401Z,1024
2017-01-27T11:19:14.511Z,1024
2017-01-27T11:20:17.952Z,1024
2017-01-27T11:21:20.890Z,1024
2017-01-27T11:22:23.829Z,1024
2017-01-27T11:23:27.110Z,1023.9
2017-01-27T11:24:30.047Z,1024
2017-01-27T11:25:33.325Z,1023.9
2017-01-27T11:26:36.288Z,1024
2017-01-27T11:27:39.760Z,1024
2017-01-27T11:28:42.699Z,1023.9
2017-01-27T11:29:45.643Z,1023.9
2017-01-27T11:30:49.089Z,1023.9
2017-01-27T11:31:52.030Z,1023.9
2017-01-27T11:32:54.968Z,1023.9
2017-01-27T11:33:58.412Z,1023.9
2017-01-27T11:35:01.364Z,1023.8
2017-01-27T11:37:07.721Z,1023.9
2017-01-27T11:38:10.665Z,1023.9
2017-01-27T11:39:13.611Z,1023.9
2017-01-27T11:40:17.053Z,1023.8
2017-01-27T11:41:19.995Z,1023.8
2017-01-27T11:42:23.270Z,1023.9
2017-01-27T11:43:26.210Z,1023.8
2017-01-27T11:44:29.660Z,1023.8
2017-01-27T11:45:32.436Z,1023.8
2017-01-27T11:46:35.411Z,1023.8
2017-01-27T11:47:38.866Z,1023.8
2017-01-27T11:48:41.810Z,1023.7
2017-01-27T11:49:44.750Z,1023.7
2017-01-27T11:50:48.023Z,1023.7
2017-01-27T11:51:51.466Z,1023.7
2017-01-27T11:52:54.410Z,1023.7
2017-01-27T11:53:57.353Z,1023.7
2017-01-27T11:55:00.799Z,1023.7
2017-01-27T11:57:06.647Z,1023.6
2017-01-27T11:58:10.093Z,1023.6
2017-01-27T11:59:12.871Z,1023.6
2017-01-27T12:00:16.034Z,1023.7
2017-01-27T12:01:19.475Z,1023.7
2017-01-27T12:02:22.252Z,1023.6
2017-01-27T12:03:25.529Z,1023.7
2017-01-27T12:04:28.513Z,1023.7
2017-01-27T12:05:31.959Z,1023.6
2017-01-27T12:06:34.900Z,1023.6
2017-01-27T12:07:37.857Z,1023.6
2017-01-27T12:08:41.076Z,1023.6
2017-01-27T12:09:44.020Z,1023.6
2017-01-27T12:10:47.468Z,1023.6
2017-01-27T12:11:50.409Z,1023.6
2017-01-27T12:12:53.852Z,1023.6
2017-01-27T12:13:56.623Z,1023.6
2017-01-27T12:15:00.064Z,1023.6
2017-01-27T12:16:03.006Z,1023.6
2017-01-27T12:17:06.282Z,1023.5
2017-01-27T12:18:09.226Z,1023.6
2017-01-27T12:19:12.508Z,1023.6
2017-01-27T12:21:18.689Z,1023.6
2017-01-27T12:22:21.463Z,1023.6
2017-01-27T12:23:24.907Z,1023.6
2017-01-27T12:24:27.857Z,1023.7
2017-01-27T12:25:31.304Z,1023.6
2017-01-27T12:26:34.077Z,1023.5
2017-01-27T12:27:37.520Z,1023.5
2017-01-27T12:28:40.347Z,1023.5
2017-01-27T12:29:43.623Z,1023.5
2017-01-27T12:30:46.567Z,1023.5
2017-01-27T12:31:50.037Z,1023.5
2017-01-27T12:32:52.991Z,1023.5
2017-01-27T12:33:56.275Z,1023.5
2017-01-27T12:34:59.215Z,1023.5
2017-01-27T12:36:02.160Z,1023.5
2017-01-27T12:37:05.607Z,1023.5
2017-01-27T12:38:08.547Z,1023.5
2017-01-27T12:39:11.491Z,1023.5
2017-01-27T12:40:14.772Z,1023.5
2017-01-27T12:41:17.716Z,1023.4
2017-01-27T12:42:21.191Z,1023.4
2017-01-27T12:43:24.139Z,1023.4
2017-01-27T12:44:27.079Z,1023.4
2017-01-27T12:45:30.574Z,1023.4
2017-01-27T12:46:33.790Z,1023.3
2017-01-27T12:47:36.562Z,1023.3
2017-01-27T12:48:40.006Z,1023.3
2017-01-27T12:49:42.948Z,1023.4
2017-01-27T12:50:45.892Z,1023.4
2017-01-27T12:51:49.347Z,1023.4
2017-01-27T12:52:52.288Z,1023.4
2017-01-27T12:53:55.226Z,1023.4
2017-01-27T12:54:58.665Z,1023.3
2017-01-27T12:56:01.607Z,1023.3
2017-01-27T12:57:05.061Z,1023.4
2017-01-27T12:58:08.004Z,1023.3
2017-01-27T12:59:11.286Z,1023.2
2017-01-27T13:00:14.225Z,1023.3
2017-01-27T13:01:17.510Z,1023.2
2017-01-27T13:03:23.366Z,1023.3
2017-01-27T13:04:26.810Z,1023.2
2017-01-27T13:05:29.773Z,1023.2
2017-01-27T13:06:32.742Z,1023.2
2017-01-27T13:07:36.188Z,1023.1
2017-01-27T13:08:39.187Z,1023.1
2017-01-27T13:09:42.461Z,1023.1
2017-01-27T13:10:45.407Z,1023.1
2017-01-27T13:11:48.346Z,1023.2
2017-01-27T13:13:54.732Z,1023.2
2017-01-27T13:14:58.183Z,1023.2
2017-01-27T13:16:01.130Z,1023.2
2017-01-27T13:17:04.092Z,1023.2
2017-01-27T13:18:07.376Z,1023.2
2017-01-27T13:19:10.319Z,1023.2
2017-01-27T13:20:13.771Z,1023.2
2017-01-27T13:28:38.603Z,1023.1
2017-01-27T13:29:41.546Z,1023.1
2017-01-27T13:30:44.993Z,1023.1
2017-01-27T13:31:47.765Z,1023.1
2017-01-27T13:32:51.039Z,1023.1
2017-01-27T13:33:54.488Z,1023.1
2017-01-27T13:34:57.263Z,1023.1
2017-01-27T13:36:00.706Z,1023.1
2017-01-27T13:37:03.652Z,1023.1
2017-01-27T13:38:06.941Z,1023.1
2017-01-27T13:39:09.716Z,1023.1
2017-01-27T13:40:12.992Z,1023.1
2017-01-27T13:41:15.941Z,1023
2017-01-27T13:42:19.386Z,1023
2017-01-27T13:43:22.329Z,1023
2017-01-27T13:44:25.779Z,1023
2017-01-27T13:45:28.719Z,1023
2017-01-27T13:46:31.665Z,1023
2017-01-27T13:47:35.118Z,1023
2017-01-27T13:48:37.961Z,1023.1
2017-01-27T13:49:41.414Z,1023.1
2017-01-27T13:50:44.368Z,1023
2017-01-27T13:51:47.654Z,1023
2017-01-27T13:52:50.589Z,1023.1
2017-01-27T13:53:53.529Z,1023.1
2017-01-27T13:55:59.887Z,1023
2017-01-27T13:57:02.831Z,1023
2017-01-27T13:58:06.279Z,1023
2017-01-27T13:59:09.218Z,1023
2017-01-27T14:00:12.499Z,1023
2017-01-27T14:01:15.609Z,1022.9
2017-01-27T14:02:18.554Z,1023
2017-01-27T14:03:21.999Z,1022.9
2017-01-27T14:04:24.944Z,1022.9
2017-01-27T14:05:27.884Z,1023
2017-01-27T14:06:31.331Z,1023
2017-01-27T14:07:34.447Z,1023
2017-01-27T14:09:40.798Z,1022.9
2017-01-27T14:10:43.735Z,1023
2017-01-27T14:11:46.678Z,1023
2017-01-27T14:12:50.124Z,1023
2017-01-27T14:13:53.072Z,1022.9
2017-01-27T14:14:56.040Z,1022.9
2017-01-27T14:15:59.483Z,1022.9
2017-01-27T14:17:02.422Z,1022.9
2017-01-27T14:18:05.869Z,1023
2017-01-27T14:19:08.804Z,1022.9
2017-01-27T14:20:12.082Z,1023
2017-01-27T14:22:17.933Z,1022.9
2017-01-27T14:23:21.405Z,1022.9
2017-01-27T14:24:24.347Z,1022.9
2017-01-27T14:25:27.796Z,1022.9
2017-01-27T14:26:30.737Z,1022.8
2017-01-27T14:27:33.680Z,1022.8
2017-01-27T14:28:37.124Z,1022.8
2017-01-27T14:30:42.987Z,1022.8
2017-01-27T14:31:46.434Z,1022.8
2017-01-27T14:32:49.374Z,1022.8
2017-01-27T14:33:52.819Z,1022.7
2017-01-27T14:34:55.770Z,1022.8
2017-01-27T14:35:58.714Z,1022.8
2017-01-27T14:37:02.158Z,1022.8
2017-01-27T14:38:05.096Z,1022.8
2017-01-27T14:39:08.202Z,1022.8
2017-01-27T14:40:11.480Z,1022.8
2017-01-27T14:41:14.420Z,1022.8
2017-01-27T14:42:17.694Z,1022.7
2017-01-27T14:43:20.657Z,1022.8
2017-01-27T14:44:24.099Z,1022.8
2017-01-27T14:45:27.074Z,1022.7
2017-01-27T14:46:30.015Z,1022.7
2017-01-27T14:48:36.375Z,1022.8
2017-01-27T14:49:39.656Z,1022.7
2017-01-27T14:50:42.596Z,1022.7
2017-01-27T14:51:45.547Z,1022.7
2017-01-27T14:52:48.990Z,1022.7
2017-01-27T14:53:51.928Z,1022.7
2017-01-27T14:54:55.375Z,1022.8
2017-01-27T14:55:58.318Z,1022.7
2017-01-27T14:57:01.282Z,1022.7
2017-01-27T14:58:04.732Z,1022.7
2017-01-27T14:59:07.677Z,1022.8
2017-01-27T15:02:16.938Z,1022.8
2017-01-27T15:04:23.295Z,1022.8
2017-01-27T15:06:29.649Z,1022.8
2017-01-27T15:07:32.613Z,1022.8
2017-01-27T15:08:36.052Z,1022.8
2017-01-27T15:09:38.828Z,1022.8
2017-01-27T15:10:42.283Z,1022.8
2017-01-27T15:11:45.223Z,1022.8
2017-01-27T15:12:48.394Z,1022.9
2017-01-27T15:13:51.359Z,1022.9
2017-01-27T15:14:54.642Z,1022.9
2017-01-27T15:15:57.605Z,1022.9
2017-01-27T15:17:01.057Z,1022.9
2017-01-27T15:18:03.833Z,1022.9
2017-01-27T15:19:07.111Z,1022.9
2017-01-27T15:20:10.064Z,1022.9
2017-01-27T15:21:13.510Z,1022.9
2017-01-27T15:22:16.318Z,1022.9
2017-01-27T15:23:19.767Z,1022.9
2017-01-27T15:24:22.714Z,1022.9
2017-01-27T15:25:25.702Z,1022.9
2017-01-27T15:26:28.978Z,1022.9
2017-01-27T15:27:31.917Z,1022.8
2017-01-27T15:29:38.444Z,1022.8
2017-01-27T15:30:41.392Z,1022.9
2017-01-27T15:31:44.845Z,1022.8
2017-01-27T15:32:47.619Z,1022.9
2017-01-27T15:33:50.927Z,1022.8
2017-01-27T15:34:53.874Z,1022.9
2017-01-27T15:35:57.220Z,1022.9
2017-01-27T15:37:00.161Z,1022.9
2017-01-27T15:38:03.443Z,1022.9
2017-01-27T15:39:06.743Z,1022.9
2017-01-27T15:41:12.598Z,1022.9
2017-01-27T15:42:16.046Z,1022.9
2017-01-27T15:43:18.988Z,1023
2017-01-27T15:50:40.899Z,1023
2017-01-27T15:51:43.870Z,1023
2017-01-27T15:52:47.317Z,1023
2017-01-27T15:54:53.170Z,1023
2017-01-27T15:55:56.452Z,1023
2017-01-27T15:56:59.899Z,1023
2017-01-27T15:58:02.846Z,1023
2017-01-27T15:59:05.794Z,1023
2017-01-27T16:00:09.243Z,1023
2017-01-27T16:01:12.184Z,1023.1
2017-01-27T16:02:15.126Z,1023.1
2017-01-27T16:03:18.606Z,1023
2017-01-27T16:05:24.486Z,1023
2017-01-27T16:08:34.280Z,1023.1
2017-01-27T16:09:37.228Z,1023
2017-01-27T16:10:40.171Z,1023
2017-01-27T16:11:43.660Z,1023.1
2017-01-27T16:12:46.612Z,1023.1
2017-01-27T16:13:49.558Z,1023.1
2017-01-27T16:16:58.823Z,1023
2017-01-27T16:18:02.126Z,1023
2017-01-27T16:20:08.481Z,1023
2017-01-27T16:21:11.759Z,1023
2017-01-27T16:26:27.343Z,1023.1
2017-01-27T16:27:30.283Z,1023.1
2017-01-27T16:29:36.637Z,1023.1
2017-01-27T16:30:39.580Z,1023.1
2017-01-27T16:31:43.027Z,1023.1
2017-01-27T16:32:45.971Z,1023.1
2017-01-27T16:33:48.916Z,1023.1
2017-01-27T16:34:52.361Z,1023.1
2017-01-27T16:38:01.631Z,1023.1
2017-01-27T16:39:04.580Z,1023.1
2017-01-27T16:41:10.941Z,1023
2017-01-27T16:42:13.889Z,1023
2017-01-27T16:46:26.563Z,1023.1
2017-01-27T16:47:29.509Z,1023.1
2017-01-27T16:48:32.962Z,1023.1
2017-01-27T16:49:35.905Z,1023.1
2017-01-27T16:51:42.259Z,1023.1
2017-01-27T16:52:45.231Z,1023.1
2017-01-27T16:53:48.178Z,1023.1
2017-01-27T16:54:51.461Z,1023.1
2017-01-27T16:55:54.426Z,1023.1
2017-01-27T16:58:00.779Z,1023.1
2017-01-27T16:59:04.224Z,1023
2017-01-27T17:00:07.173Z,1023.1
2017-01-27T17:01:10.454Z,1023.1
2017-01-27T17:02:13.417Z,1023.1
2017-01-27T17:03:16.354Z,1023
2017-01-27T17:04:19.810Z,1023.1
2017-01-27T17:05:22.778Z,1023.1
2017-01-27T17:06:26.053Z,1023
2017-01-27T17:07:28.835Z,1023.1
2017-01-27T17:08:32.312Z,1023.1
2017-01-27T17:09:35.260Z,1023.1
2017-01-27T17:10:38.202Z,1023.1
2017-01-27T17:11:41.651Z,1023.1
2017-01-27T17:12:44.435Z,1023.1
2017-01-27T17:13:47.879Z,1023.1
2017-01-27T17:14:50.830Z,1023.1
2017-01-27T17:15:53.806Z,1023.1
2017-01-27T17:16:57.090Z,1023.1
2017-01-27T17:18:00.367Z,1023.1
2017-01-27T17:19:03.334Z,1023.1
2017-01-27T17:20:06.304Z,1023.1
2017-01-27T17:21:09.754Z,1023.1
2017-01-27T17:23:15.780Z,1023
2017-01-27T17:24:18.737Z,1023.1
2017-01-27T17:25:22.180Z,1023.1
2017-01-27T17:26:24.956Z,1023.1
2017-01-27T17:28:31.313Z,1023.1
2017-01-27T17:29:34.253Z,1023.1
2017-01-27T17:31:40.947Z,1023
2017-01-27T17:32:43.726Z,1023
2017-01-27T17:33:47.174Z,1023
2017-01-27T17:34:50.121Z,1023
2017-01-27T17:35:53.066Z,1023
2017-01-27T17:36:56.538Z,1023
2017-01-27T17:37:59.485Z,1023
2017-01-27T17:39:02.430Z,1023.1
2017-01-27T17:40:05.883Z,1023.1
2017-01-27T17:41:08.657Z,1023.1
2017-01-27T17:42:11.942Z,1023.1
2017-01-27T17:43:14.886Z,1023.1
2017-01-27T17:44:18.333Z,1023.1
2017-01-27T17:45:21.284Z,1023
2017-01-27T17:46:24.561Z,1023.1
2017-01-27T17:47:27.499Z,1023.1
2017-01-27T17:48:30.795Z,1023.1
2017-01-27T17:49:33.734Z,1023.1
2017-01-27T17:50:36.675Z,1023.1
2017-01-27T17:51:40.123Z,1023
2017-01-27T17:52:43.070Z,1023.1
2017-01-27T17:53:46.014Z,1023.1
2017-01-27T17:54:49.298Z,1023
2017-01-27T17:55:52.239Z,1023.1
2017-01-27T17:56:55.695Z,1023
2017-01-27T17:57:58.632Z,1023.1
2017-01-27T17:59:01.601Z,1023.1
2017-01-27T18:00:05.050Z,1023
2017-01-27T18:01:07.831Z,1023
2017-01-27T18:03:14.192Z,1023
2017-01-27T18:04:17.160Z,1023
2017-01-27T18:05:20.604Z,1023
2017-01-27T18:06:23.547Z,1023
2017-01-27T18:07:26.996Z,1023
2017-01-27T18:08:29.945Z,1023
2017-01-27T18:09:32.903Z,1023
2017-01-27T18:10:36.358Z,1023
2017-01-27T18:11:39.327Z,1023
2017-01-27T18:12:42.282Z,1023
2017-01-27T18:13:45.231Z,1023
2017-01-27T18:14:48.685Z,1022.9
2017-01-27T18:15:51.632Z,1023
2017-01-27T18:16:54.586Z,1023
2017-01-27T18:17:58.033Z,1023
2017-01-27T18:19:00.839Z,1023
2017-01-27T18:22:10.608Z,1023
2017-01-27T18:23:13.555Z,1023
2017-01-27T18:24:16.500Z,1023
2017-01-27T18:25:19.945Z,1023
2017-01-27T18:26:22.888Z,1023
2017-01-27T18:27:25.831Z,1023.1
2017-01-27T18:28:29.280Z,1023
2017-01-27T18:29:32.227Z,1023
2017-01-27T18:30:35.170Z,1023
2017-01-27T18:31:38.617Z,1023
2017-01-27T18:32:41.558Z,1023
2017-01-27T18:33:44.499Z,1023
2017-01-27T18:34:47.951Z,1023